Anastasia Island, Florida
Current Conditions -  °F | °C
As of 8:58 PM on Monday 24 Nov 2014 (Local Time) from KSGJ Reporting Station
Clear Clear  
Wind Chill: 71°   Ceiling: Unl
Heat Index: 71°   Visibility: 8mi
Dew Point: 68°   Wind: 5mph
Humidity: 90%   Direction: 160°SSE
Pressure: 29.98"   Gusts: NA
Location:  29.8475°N, 81.2787°W
Report Text: KSGJ 250158Z AUTO 16004KT 8SM CLR 22/20 A2998 RMK AO2 SLP151 T02170200
Loading
Personal Weather Stations






























Interactive Weather Map New forecast layout! Learn more

10-Day Weather Forecast

Advertisements
Track Severe Weather on mobile